createdAt,value
2022-09-25T00:01:06.428Z,7.57
2022-09-25T00:03:33.549Z,11.60
2022-09-25T00:06:13.341Z,10.43
2022-09-25T00:08:40.472Z,8.00
2022-09-25T00:11:10.174Z,9.50
2022-09-25T00:13:37.395Z,7.65
2022-09-25T00:16:04.737Z,7.95
2022-09-25T00:18:50.534Z,8.05
2022-09-25T00:21:17.680Z,8.30
2022-09-25T00:23:45.345Z,6.45
2022-09-25T00:26:14.240Z,7.10
2022-09-25T00:28:42.554Z,7.25
2022-09-25T00:31:11.916Z,9.13
2022-09-25T00:33:38.939Z,7.10
2022-09-25T00:36:09.305Z,9.10
2022-09-25T00:38:37.969Z,7.05
2022-09-25T00:41:07.499Z,10.80
2022-09-25T00:43:42.437Z,8.98
2022-09-25T00:46:27.953Z,6.88
2022-09-25T00:49:05.097Z,7.40
2022-09-25T00:51:56.656Z,9.07
2022-09-25T00:54:31.746Z,7.47
2022-09-25T00:57:02.358Z,9.57
2022-09-25T00:59:34.626Z,8.32
2022-09-25T01:02:01.762Z,7.70
2022-09-25T01:04:32.824Z,9.63
2022-09-25T01:06:59.820Z,7.10
2022-09-25T01:09:27.682Z,9.55
2022-09-25T01:11:54.673Z,9.35
2022-09-25T01:14:21.923Z,9.25
2022-09-25T01:16:57.843Z,9.27
2022-09-25T01:19:38.681Z,8.07
2022-09-25T01:22:20.264Z,6.30
2022-09-25T01:24:56.178Z,8.98
2022-09-25T01:27:37.602Z,9.93
2022-09-25T01:30:16.605Z,11.80
2022-09-25T01:33:05.491Z,10.55
2022-09-25T01:35:59.708Z,9.95
2022-09-25T01:38:42.855Z,8.48
2022-09-25T01:41:33.282Z,7.53
2022-09-25T01:44:10.239Z,8.75
2022-09-25T01:46:42.395Z,8.70
2022-09-25T01:49:17.808Z,10.15
2022-09-25T01:51:49.759Z,8.32
2022-09-25T01:54:40.281Z,7.88
2022-09-25T01:57:26.156Z,8.88
2022-09-25T01:59:58.798Z,7.38
2022-09-25T02:02:34.606Z,8.75
2022-09-25T02:05:23.161Z,7.07
2022-09-25T02:07:58.524Z,8.68
2022-09-25T02:10:36.468Z,9.40
2022-09-25T02:13:13.700Z,8.57
2022-09-25T02:16:02.234Z,7.57
2022-09-25T02:18:48.305Z,8.15
2022-09-25T02:21:36.432Z,6.37
2022-09-25T02:24:22.962Z,7.88
2022-09-25T02:26:50.843Z,7.38
2022-09-25T02:29:18.363Z,6.95
2022-09-25T02:31:54.229Z,7.07
2022-09-25T02:34:22.231Z,6.43
2022-09-25T02:36:49.272Z,6.18
2022-09-25T02:39:19.586Z,6.80
2022-09-25T02:41:46.538Z,5.05
2022-09-25T02:44:36.469Z,5.13
2022-09-25T02:47:22.496Z,7.45
2022-09-25T02:50:10.463Z,5.22
2022-09-25T02:52:49.953Z,6.22
2022-09-25T02:55:36.970Z,5.88
2022-09-25T03:00:37.590Z,7.40
2022-09-25T03:03:08.076Z,6.28
2022-09-25T03:05:36.548Z,6.28
2022-09-25T03:08:23.508Z,7.13
2022-09-25T03:13:23.323Z,6.35
2022-09-25T03:15:59.858Z,5.93
2022-09-25T03:18:28.468Z,5.75
2022-09-25T03:20:55.481Z,7.80
2022-09-25T03:23:22.262Z,6.38
2022-09-25T03:25:50.240Z,6.15
2022-09-25T03:28:18.081Z,5.18
2022-09-25T03:30:45.745Z,5.53
2022-09-25T03:33:13.502Z,6.72
2022-09-25T03:35:40.715Z,5.30
2022-09-25T03:38:10.675Z,5.63
2022-09-25T03:40:37.534Z,5.40
2022-09-25T03:47:56.753Z,5.68
2022-09-25T03:50:23.556Z,5.32
2022-09-25T03:52:50.414Z,5.43
2022-09-25T03:55:17.334Z,6.28
2022-09-25T03:57:44.103Z,6.18
2022-09-25T04:00:11.509Z,6.72
2022-09-25T04:02:41.375Z,4.55
2022-09-25T04:05:09.445Z,5.32
2022-09-25T04:07:36.377Z,5.25
2022-09-25T04:10:03.631Z,6.28
2022-09-25T04:12:30.450Z,4.00
2022-09-25T04:14:57.250Z,5.03
2022-09-25T04:17:23.983Z,4.85
2022-09-25T04:19:52.639Z,6.55
2022-09-25T04:22:19.599Z,6.88
2022-09-25T04:24:49.241Z,5.50
2022-09-25T04:27:19.221Z,6.68
2022-09-25T04:29:46.803Z,5.40
2022-09-25T04:32:33.349Z,6.03
2022-09-25T04:35:00.061Z,4.88
2022-09-25T04:37:27.205Z,5.80
2022-09-25T04:39:55.739Z,5.40
2022-09-25T04:42:24.738Z,5.55
2022-09-25T04:44:56.161Z,4.93
2022-09-25T04:47:25.019Z,6.93
2022-09-25T04:49:52.597Z,5.50
2022-09-25T04:52:20.328Z,5.50
2022-09-25T04:54:47.834Z,5.30
2022-09-25T04:57:38.755Z,5.53
2022-09-25T05:00:07.520Z,5.20
2022-09-25T05:02:34.666Z,6.72
2022-09-25T05:05:01.609Z,5.47
2022-09-25T05:07:28.594Z,3.88
2022-09-25T05:09:55.774Z,5.50
2022-09-25T05:12:22.498Z,5.60
2022-09-25T05:14:49.253Z,5.22
2022-09-25T05:17:16.067Z,6.57
2022-09-25T05:19:42.796Z,4.75
2022-09-25T05:22:09.601Z,5.47
2022-09-25T05:24:38.512Z,5.85
2022-09-25T05:27:05.569Z,4.72
2022-09-25T05:29:32.450Z,5.50
2022-09-25T05:31:59.738Z,5.25
2022-09-25T05:34:26.595Z,5.15
2022-09-25T05:36:53.525Z,4.88
2022-09-25T05:39:20.216Z,6.03
2022-09-25T05:41:46.932Z,5.57
2022-09-25T05:44:14.855Z,5.25
2022-09-25T05:46:42.235Z,6.43
2022-09-25T05:49:09.185Z,8.98
2022-09-25T05:51:35.975Z,7.82
2022-09-25T05:54:02.766Z,6.07
2022-09-25T05:56:29.612Z,5.05
2022-09-25T05:58:58.733Z,4.45
2022-09-25T06:01:26.126Z,4.65
2022-09-25T06:03:53.076Z,5.28
2022-09-25T06:06:27.281Z,5.22
2022-09-25T06:08:54.880Z,5.25
2022-09-25T06:11:22.353Z,6.10
2022-09-25T06:13:54.256Z,4.70
2022-09-25T06:16:21.384Z,5.10
2022-09-25T06:18:48.413Z,5.10
2022-09-25T06:21:15.196Z,4.72
2022-09-25T06:23:44.921Z,4.38
2022-09-25T06:26:12.562Z,4.50
2022-09-25T06:28:39.555Z,4.45
2022-09-25T06:31:06.419Z,5.18
2022-09-25T06:33:33.243Z,4.85
2022-09-25T06:36:00.723Z,5.30
2022-09-25T06:38:27.879Z,5.20
2022-09-25T06:40:59.324Z,5.65
2022-09-25T06:43:27.298Z,4.93
2022-09-25T06:45:54.125Z,5.20
2022-09-25T06:48:22.068Z,5.63
2022-09-25T06:50:55.105Z,4.90
2022-09-25T06:53:24.024Z,6.10
2022-09-25T06:55:51.108Z,7.40
2022-09-25T06:58:21.464Z,9.05
2022-09-25T07:00:49.670Z,8.30
2022-09-25T07:03:35.058Z,7.38
2022-09-25T07:06:03.567Z,7.50
2022-09-25T07:08:30.331Z,8.55
2022-09-25T07:10:58.642Z,8.82
2022-09-25T07:13:28.795Z,7.30
2022-09-25T07:16:00.957Z,8.20
2022-09-25T07:18:29.237Z,7.47
2022-09-25T07:21:07.890Z,6.90
2022-09-25T07:23:35.328Z,6.80
2022-09-25T07:26:22.798Z,7.18
2022-09-25T07:29:01.018Z,6.47
2022-09-25T07:31:30.249Z,8.75
2022-09-25T07:33:59.878Z,6.75
2022-09-25T07:36:26.835Z,6.70
2022-09-25T07:38:54.384Z,6.28
2022-09-25T07:41:22.777Z,7.45
2022-09-25T07:44:40.034Z,7.00
2022-09-25T07:46:44.623Z,7.00
2022-09-25T07:49:12.101Z,6.93
2022-09-25T07:51:39.157Z,5.25
2022-09-25T07:54:06.075Z,5.03
2022-09-25T07:56:34.545Z,5.30
2022-09-25T07:59:01.647Z,5.38
2022-09-25T08:01:28.472Z,6.80
2022-09-25T08:03:55.488Z,7.35
2022-09-25T08:06:22.187Z,10.32
2022-09-25T08:08:48.921Z,9.88
2022-09-25T08:11:17.634Z,9.75
2022-09-25T08:13:45.692Z,9.07
2022-09-25T08:16:17.901Z,8.13
2022-09-25T08:18:46.866Z,7.53
2022-09-25T08:21:15.842Z,8.82
2022-09-25T08:23:47.786Z,7.10
2022-09-25T08:26:16.542Z,6.93
2022-09-25T08:28:44.092Z,8.63
2022-09-25T08:31:11.362Z,8.82
2022-09-25T08:33:38.218Z,10.02
2022-09-25T08:36:05.870Z,9.63
2022-09-25T08:38:33.294Z,10.05
2022-09-25T08:41:09.424Z,10.10
2022-09-25T08:43:42.814Z,10.40
2022-09-25T08:46:41.627Z,11.48
2022-09-25T08:49:11.180Z,11.93
2022-09-25T08:51:45.410Z,13.10
2022-09-25T08:54:23.812Z,15.10
2022-09-25T08:56:58.125Z,13.43
2022-09-25T08:59:34.564Z,11.93
2022-09-25T09:02:10.676Z,14.07
2022-09-25T09:04:53.238Z,14.75
2022-09-25T09:07:42.579Z,14.45
2022-09-25T09:10:33.977Z,17.45
2022-09-25T09:13:20.477Z,16.48
2022-09-25T09:15:57.127Z,15.32
2022-09-25T09:18:31.972Z,15.05
2022-09-25T09:21:07.743Z,15.27
2022-09-25T09:23:45.095Z,15.05
2022-09-25T09:26:29.432Z,15.70
2022-09-25T09:29:20.507Z,14.60
2022-09-25T09:32:19.745Z,14.25
2022-09-25T09:35:07.017Z,15.13
2022-09-25T09:38:06.071Z,16.23
2022-09-25T09:40:51.800Z,14.88
2022-09-25T09:43:43.720Z,15.70
2022-09-25T09:46:18.308Z,13.95
2022-09-25T09:48:50.773Z,15.07
2022-09-25T09:51:32.997Z,14.10
2022-09-25T09:54:11.842Z,15.02
2022-09-25T09:56:44.457Z,13.50
2022-09-25T09:59:24.513Z,14.38
2022-09-25T10:02:23.689Z,12.93
2022-09-25T10:04:52.874Z,13.10
2022-09-25T10:07:22.697Z,12.80
2022-09-25T10:09:50.426Z,12.85
2022-09-25T10:12:30.543Z,12.35
2022-09-25T10:15:01.677Z,11.88
2022-09-25T10:17:29.738Z,10.65
2022-09-25T10:20:14.764Z,9.25
2022-09-25T10:22:45.545Z,8.55
2022-09-25T10:25:12.736Z,9.10
2022-09-25T10:27:48.327Z,9.00
2022-09-25T10:30:18.695Z,8.52
2022-09-25T10:33:03.425Z,9.30
2022-09-25T10:35:43.434Z,8.93
2022-09-25T10:38:31.177Z,9.15
2022-09-25T10:41:12.113Z,10.30
2022-09-25T10:44:00.010Z,10.00
2022-09-25T10:46:53.292Z,8.90
2022-09-25T10:49:40.004Z,9.20
2022-09-25T10:54:41.895Z,9.15
2022-09-25T10:57:18.121Z,9.80
2022-09-25T10:59:50.569Z,8.95
2022-09-25T11:02:39.226Z,8.88
2022-09-25T11:05:15.588Z,8.93
2022-09-25T11:10:47.496Z,8.95
2022-09-25T11:13:24.353Z,8.68
2022-09-25T11:15:56.542Z,9.65
2022-09-25T11:18:35.887Z,9.20
2022-09-25T11:21:04.556Z,8.98
2022-09-25T11:23:49.750Z,9.45
2022-09-25T11:26:21.946Z,8.40
2022-09-25T11:29:04.537Z,7.90
2022-09-25T11:31:50.160Z,7.63
2022-09-25T11:34:36.604Z,7.93
2022-09-25T11:37:10.953Z,6.45
2022-09-25T11:40:25.768Z,6.97
2022-09-25T11:43:08.630Z,7.30
2022-09-25T11:45:47.539Z,7.00
2022-09-25T11:48:23.306Z,6.82
2022-09-25T11:51:24.298Z,7.30
2022-09-25T11:54:25.350Z,7.28
2022-09-25T11:56:59.801Z,7.35
2022-09-25T12:00:00.963Z,7.95
2022-09-25T12:02:49.943Z,7.60
2022-09-25T12:05:35.090Z,6.45
2022-09-25T12:08:23.351Z,7.22
2022-09-25T12:11:18.061Z,8.07
2022-09-25T12:14:16.546Z,8.38
2022-09-25T12:17:06.674Z,8.50
2022-09-25T12:20:01.869Z,8.68
2022-09-25T12:23:08.892Z,9.05
2022-09-25T12:25:58.412Z,8.10
2022-09-25T12:28:29.368Z,8.82
2022-09-25T12:31:08.025Z,8.55
2022-09-25T12:33:50.685Z,8.93
2022-09-25T12:36:38.826Z,8.07
2022-09-25T12:39:37.736Z,8.40
2022-09-25T12:42:10.718Z,7.65
2022-09-25T12:44:47.176Z,10.80
2022-09-25T12:50:21.545Z,10.98
2022-09-25T12:53:10.378Z,10.90
2022-09-25T12:55:40.402Z,10.32
2022-09-25T12:58:22.097Z,13.05
2022-09-25T13:01:01.507Z,11.10
2022-09-25T13:03:46.705Z,10.38
2022-09-25T13:06:35.770Z,9.77
2022-09-25T13:09:20.956Z,11.00
2022-09-25T13:12:09.081Z,11.23
2022-09-25T13:14:43.091Z,11.20
2022-09-25T13:17:19.044Z,11.32
2022-09-25T13:19:47.127Z,12.30
2022-09-25T13:22:22.003Z,11.90
2022-09-25T13:24:55.902Z,13.25
2022-09-25T13:27:37.665Z,15.48
2022-09-25T13:30:07.102Z,17.02
2022-09-25T13:32:39.536Z,14.85
2022-09-25T13:35:21.377Z,14.85
2022-09-25T13:37:53.524Z,14.68
2022-09-25T13:40:43.116Z,13.27
2022-09-25T13:43:25.745Z,16.00
2022-09-25T13:46:26.388Z,14.43
2022-09-25T13:48:56.660Z,13.65
2022-09-25T13:51:24.295Z,12.98
2022-09-25T13:54:02.893Z,14.02
2022-09-25T13:56:42.357Z,13.27
2022-09-25T13:59:14.247Z,14.57
2022-09-25T14:01:51.844Z,14.48
2022-09-25T14:04:36.591Z,13.40
2022-09-25T14:07:13.455Z,14.18
2022-09-25T14:09:48.078Z,14.35
2022-09-25T14:12:24.677Z,14.18
2022-09-25T14:14:58.303Z,13.75
2022-09-25T14:17:32.895Z,14.75
2022-09-25T14:20:04.019Z,16.23
2022-09-25T14:22:46.939Z,16.23
2022-09-25T14:25:40.317Z,15.63
2022-09-25T14:28:36.919Z,13.48
2022-09-25T14:31:42.824Z,15.13
2022-09-25T14:34:44.624Z,16.75
2022-09-25T14:37:37.354Z,15.30
2022-09-25T14:40:20.392Z,13.82
2022-09-25T14:43:16.846Z,13.20
2022-09-25T14:46:11.937Z,15.35
2022-09-25T14:48:54.948Z,13.55
2022-09-25T14:51:34.336Z,12.68
2022-09-25T14:54:05.112Z,12.93
2022-09-25T14:56:34.343Z,13.13
2022-09-25T14:59:16.081Z,11.85
2022-09-25T15:01:48.644Z,12.95
2022-09-25T15:04:31.596Z,11.95
2022-09-25T15:07:13.187Z,15.02
2022-09-25T15:09:51.275Z,13.50
2022-09-25T15:12:18.323Z,12.98
2022-09-25T15:15:10.512Z,12.77
2022-09-25T15:17:59.287Z,12.00
2022-09-25T15:20:34.733Z,14.15
2022-09-25T15:23:06.528Z,16.97
2022-09-25T15:25:44.040Z,16.02
2022-09-25T15:28:20.115Z,16.48
2022-09-25T15:30:59.768Z,17.52
2022-09-25T15:33:34.050Z,18.60
2022-09-25T15:36:16.778Z,18.60
2022-09-25T15:38:44.651Z,17.77
2022-09-25T15:41:17.820Z,17.13
2022-09-25T15:43:44.885Z,16.52
2022-09-25T15:46:14.858Z,17.55
2022-09-25T15:48:52.932Z,19.17
2022-09-25T15:51:29.625Z,20.55
2022-09-25T15:54:26.044Z,20.50
2022-09-25T15:56:57.721Z,14.50
2022-09-25T15:59:59.908Z,18.60
2022-09-25T16:02:51.977Z,18.52
2022-09-25T16:05:24.369Z,17.30
2022-09-25T16:07:52.334Z,21.33
2022-09-25T16:10:19.905Z,20.98
2022-09-25T16:12:52.709Z,21.45
2022-09-25T16:15:32.348Z,22.40
2022-09-25T16:18:05.676Z,22.48
2022-09-25T16:20:36.380Z,22.30
2022-09-25T16:23:07.568Z,20.60
2022-09-25T16:25:43.367Z,20.50
2022-09-25T16:28:29.256Z,21.60
2022-09-25T16:31:08.875Z,22.27
2022-09-25T16:33:43.736Z,20.98
2022-09-25T16:36:19.023Z,21.23
2022-09-25T16:39:02.866Z,19.75
2022-09-25T16:41:30.100Z,21.90
2022-09-25T16:44:15.149Z,24.23
2022-09-25T16:46:44.118Z,20.25
2022-09-25T16:49:12.753Z,22.92
2022-09-25T16:51:45.630Z,22.98
2022-09-25T16:54:18.481Z,22.67
2022-09-25T16:56:48.120Z,25.90
2022-09-25T16:59:24.419Z,23.38
2022-09-25T17:01:53.341Z,23.83
2022-09-25T17:04:23.854Z,24.65
2022-09-25T17:06:50.790Z,25.80
2022-09-25T17:09:18.497Z,23.05
2022-09-25T17:11:48.199Z,24.38
2022-09-25T17:14:30.189Z,24.25
2022-09-25T17:17:03.187Z,24.55
2022-09-25T17:19:42.922Z,23.65
2022-09-25T17:22:10.593Z,27.13
2022-09-25T17:24:38.118Z,24.80
2022-09-25T17:27:16.790Z,24.45
2022-09-25T17:29:48.198Z,23.92
2022-09-25T17:32:17.923Z,23.13
2022-09-25T17:34:51.789Z,32.17
2022-09-25T17:37:19.359Z,22.30
2022-09-25T17:39:46.471Z,23.63
2022-09-25T17:42:13.406Z,120.00
2022-09-25T17:44:42.853Z,32.60
2022-09-25T17:47:10.879Z,22.67
2022-09-25T17:49:37.789Z,24.38
2022-09-25T17:52:05.082Z,23.00
2022-09-25T17:54:32.297Z,24.40
2022-09-25T17:56:59.331Z,22.85
2022-09-25T17:59:26.189Z,22.88
2022-09-25T18:01:53.204Z,21.80
2022-09-25T18:04:25.606Z,22.23
2022-09-25T18:06:52.930Z,22.73
2022-09-25T18:09:20.263Z,23.77
2022-09-25T18:11:47.968Z,22.67
2022-09-25T18:14:16.232Z,22.30
2022-09-25T18:16:44.736Z,21.88
2022-09-25T18:19:37.996Z,22.25
2022-09-25T18:22:17.712Z,22.30
2022-09-25T18:24:46.051Z,21.50
2022-09-25T18:27:15.264Z,20.85
2022-09-25T18:29:42.273Z,21.20
2022-09-25T18:32:09.154Z,19.88
2022-09-25T18:34:36.181Z,21.42
2022-09-25T18:37:03.133Z,18.75
2022-09-25T18:39:30.547Z,19.10
2022-09-25T18:41:57.531Z,18.67
2022-09-25T18:44:24.653Z,18.67
2022-09-25T18:46:52.903Z,17.92
2022-09-25T18:49:19.940Z,17.90
2022-09-25T18:51:46.895Z,17.08
2022-09-25T18:54:15.163Z,15.10
2022-09-25T18:56:42.541Z,15.98
2022-09-25T18:59:09.835Z,15.90
2022-09-25T19:01:38.593Z,18.80
2022-09-25T19:04:06.867Z,17.10
2022-09-25T19:06:34.368Z,18.35
2022-09-25T19:09:01.386Z,15.85
2022-09-25T19:11:28.994Z,15.02
2022-09-25T19:13:56.581Z,15.70
2022-09-25T19:16:24.249Z,15.30
2022-09-25T19:18:51.548Z,14.38
2022-09-25T19:21:26.775Z,12.45
2022-09-25T19:23:54.699Z,12.73
2022-09-25T19:26:26.506Z,11.60
2022-09-25T19:28:55.182Z,12.35
2022-09-25T19:31:30.237Z,9.73
2022-09-25T19:34:28.071Z,10.93
2022-09-25T19:36:56.601Z,11.57
2022-09-25T19:39:25.052Z,10.82
2022-09-25T19:41:53.142Z,10.20
2022-09-25T19:44:21.174Z,9.30
2022-09-25T19:46:48.676Z,9.80
2022-09-25T19:49:17.831Z,11.23
2022-09-25T19:51:46.001Z,9.55
2022-09-25T19:54:15.811Z,10.25
2022-09-25T19:56:43.506Z,10.00
2022-09-25T19:59:15.579Z,11.07
2022-09-25T20:01:44.303Z,12.07
2022-09-25T20:04:18.309Z,13.95
2022-09-25T20:06:46.857Z,26.05
2022-09-25T20:09:14.824Z,13.10
2022-09-25T20:11:42.667Z,11.65
2022-09-25T20:14:13.709Z,13.73
2022-09-25T20:16:41.383Z,13.23
2022-09-25T20:19:11.809Z,13.18
2022-09-25T20:21:41.789Z,12.27
2022-09-25T20:24:09.710Z,12.23
2022-09-25T20:26:38.183Z,12.35
2022-09-25T20:29:09.342Z,11.52
2022-09-25T20:31:38.518Z,10.80
2022-09-25T20:34:06.993Z,10.75
2022-09-25T20:36:35.362Z,11.00
2022-09-25T20:39:03.243Z,10.55
2022-09-25T20:44:38.828Z,14.70
2022-09-25T20:47:05.620Z,10.52
2022-09-25T20:49:32.608Z,14.05
2022-09-25T20:52:00.162Z,11.25
2022-09-25T20:54:27.098Z,8.45
2022-09-25T20:56:53.891Z,8.60
2022-09-25T20:59:21.013Z,8.27
2022-09-25T21:01:48.040Z,9.65
2022-09-25T21:04:18.414Z,10.63
2022-09-25T21:06:46.330Z,10.60
2022-09-25T21:09:21.996Z,10.75
2022-09-25T21:11:52.122Z,9.02
2022-09-25T21:14:25.477Z,9.20
2022-09-25T21:16:53.791Z,9.95
2022-09-25T21:19:23.569Z,8.57
2022-09-25T21:21:51.229Z,8.57
2022-09-25T21:24:21.475Z,8.68
2022-09-25T21:26:48.965Z,7.32
2022-09-25T21:29:17.791Z,7.53
2022-09-25T21:31:49.737Z,9.93
2022-09-25T21:34:18.894Z,8.80
2022-09-25T21:36:46.622Z,9.63
2022-09-25T21:39:14.388Z,7.60
2022-09-25T21:41:41.361Z,8.10
2022-09-25T21:44:13.181Z,9.05
2022-09-25T21:46:40.701Z,6.65
2022-09-25T21:49:08.403Z,6.95
2022-09-25T21:51:43.550Z,7.63
2022-09-25T21:54:12.642Z,7.00
2022-09-25T21:56:40.200Z,7.00
2022-09-25T21:59:10.655Z,7.20
2022-09-25T22:01:40.706Z,7.60
2022-09-25T22:04:14.212Z,7.13
2022-09-25T22:06:47.436Z,7.18
2022-09-25T22:09:18.133Z,5.82
2022-09-25T22:11:49.083Z,6.55
2022-09-25T22:14:20.889Z,14.38
2022-09-25T22:16:50.825Z,6.28
2022-09-25T22:19:29.906Z,5.60
2022-09-25T22:21:58.953Z,6.28
2022-09-25T22:24:26.854Z,5.20
2022-09-25T22:26:57.065Z,5.28
2022-09-25T22:29:25.035Z,4.50
2022-09-25T22:31:53.409Z,5.78
2022-09-25T22:34:24.485Z,5.40
2022-09-25T22:36:58.618Z,5.10
2022-09-25T22:39:27.042Z,5.22
2022-09-25T22:41:55.517Z,5.07
2022-09-25T22:44:23.121Z,5.50
2022-09-25T22:46:50.866Z,5.15
2022-09-25T22:49:21.453Z,5.75
2022-09-25T22:51:51.423Z,5.40
2022-09-25T22:54:19.122Z,5.43
2022-09-25T22:56:46.598Z,5.03
2022-09-25T22:59:19.368Z,4.25
2022-09-25T23:01:53.141Z,4.53
2022-09-25T23:04:23.290Z,4.00
2022-09-25T23:06:51.343Z,4.70
2022-09-25T23:09:21.281Z,4.60
2022-09-25T23:11:48.784Z,4.22
2022-09-25T23:14:19.778Z,4.60
2022-09-25T23:16:48.554Z,4.22
2022-09-25T23:19:16.388Z,3.92
2022-09-25T23:21:44.194Z,4.50
2022-09-25T23:24:14.564Z,3.78
2022-09-25T23:26:42.348Z,2.90
2022-09-25T23:29:12.131Z,4.07
2022-09-25T23:31:40.364Z,4.07
2022-09-25T23:34:10.088Z,3.40
2022-09-25T23:36:37.711Z,3.80
2022-09-25T23:39:07.485Z,3.53
2022-09-25T23:41:39.687Z,3.75
2022-09-25T23:44:09.789Z,3.17
2022-09-25T23:46:41.600Z,4.30
2022-09-25T23:49:11.824Z,3.65
2022-09-25T23:51:40.067Z,3.85
2022-09-25T23:54:08.205Z,4.50
2022-09-25T23:56:36.276Z,4.68
2022-09-25T23:59:07.058Z,4.30
